createdAt,value
2023-05-14T00:01:52.033Z,93.79
2023-05-14T00:04:22.108Z,93.33
2023-05-14T00:06:49.560Z,93.32
2023-05-14T00:09:17.153Z,94.01
2023-05-14T00:11:44.518Z,94.50
2023-05-14T00:14:12.079Z,96.25
2023-05-14T00:16:39.576Z,95.04
2023-05-14T00:19:07.024Z,95.45
2023-05-14T00:21:34.466Z,94.07
2023-05-14T00:24:01.766Z,93.74
2023-05-14T00:26:29.112Z,93.84
2023-05-14T00:28:56.370Z,94.80
2023-05-14T00:31:23.795Z,94.36
2023-05-14T00:33:51.129Z,95.48
2023-05-14T00:36:18.376Z,96.27
2023-05-14T00:38:45.924Z,97.51
2023-05-14T00:41:13.287Z,96.83
2023-05-14T00:43:40.621Z,98.32
2023-05-14T00:46:08.182Z,99.37
2023-05-14T00:48:35.892Z,99.20
2023-05-14T00:51:03.547Z,99.16
2023-05-14T00:53:31.580Z,100.00
2023-05-14T00:55:59.142Z,100.00
2023-05-14T00:58:26.484Z,100.00
2023-05-14T01:00:53.999Z,100.00
2023-05-14T01:03:21.481Z,100.00
2023-05-14T01:06:07.111Z,100.00
2023-05-14T01:08:40.485Z,100.00
2023-05-14T01:11:19.661Z,100.00
2023-05-14T01:13:59.793Z,100.00
2023-05-14T01:16:29.100Z,100.00
2023-05-14T01:18:57.892Z,100.00
2023-05-14T01:21:38.501Z,100.00
2023-05-14T01:24:06.458Z,100.00
2023-05-14T01:26:34.923Z,100.00
2023-05-14T01:29:22.722Z,100.00
2023-05-14T01:31:54.335Z,100.00
2023-05-14T01:34:23.527Z,100.00
2023-05-14T01:36:52.222Z,100.00
2023-05-14T01:39:19.948Z,100.00
2023-05-14T01:41:48.750Z,100.00
2023-05-14T01:44:16.379Z,99.78
2023-05-14T01:46:43.714Z,100.00
2023-05-14T01:49:11.098Z,100.00
2023-05-14T01:51:38.557Z,99.55
2023-05-14T01:54:06.019Z,100.00
2023-05-14T01:56:33.462Z,100.00
2023-05-14T01:59:00.857Z,100.00
2023-05-14T02:01:28.204Z,100.00
2023-05-14T02:03:55.875Z,100.00
2023-05-14T02:06:23.368Z,100.00
2023-05-14T02:08:51.045Z,100.00
2023-05-14T02:11:18.372Z,100.00
2023-05-14T02:13:45.799Z,100.00
2023-05-14T02:16:13.324Z,100.00
2023-05-14T02:18:40.756Z,100.00
2023-05-14T02:21:08.195Z,100.00
2023-05-14T02:23:41.420Z,100.00
2023-05-14T02:26:12.737Z,100.00
2023-05-14T02:28:40.135Z,100.00
2023-05-14T02:31:07.492Z,100.00
2023-05-14T02:33:34.894Z,100.00
2023-05-14T02:36:02.442Z,100.00
2023-05-14T02:38:29.929Z,100.00
2023-05-14T02:40:57.295Z,100.00
2023-05-14T02:43:24.636Z,100.00
2023-05-14T02:45:52.692Z,100.00
2023-05-14T02:48:20.267Z,100.00
2023-05-14T02:50:50.058Z,100.00
2023-05-14T02:53:17.467Z,100.00
2023-05-14T02:55:44.850Z,100.00
2023-05-14T02:58:12.211Z,100.00
2023-05-14T03:00:39.548Z,100.00
2023-05-14T03:03:08.690Z,100.00
2023-05-14T03:05:36.597Z,100.00
2023-05-14T03:08:03.932Z,100.00
2023-05-14T03:10:32.883Z,100.00
2023-05-14T03:13:00.274Z,100.00
2023-05-14T03:15:27.732Z,100.00
2023-05-14T03:17:55.219Z,100.00
2023-05-14T03:20:24.664Z,100.00
2023-05-14T03:22:54.368Z,100.00
2023-05-14T03:25:21.915Z,100.00
2023-05-14T03:27:49.263Z,100.00
2023-05-14T03:30:16.653Z,100.00
2023-05-14T03:32:44.656Z,100.00
2023-05-14T03:35:12.009Z,100.00
2023-05-14T03:37:39.416Z,100.00
2023-05-14T03:40:07.673Z,100.00
2023-05-14T03:42:37.109Z,100.00
2023-05-14T03:45:04.841Z,100.00
2023-05-14T03:47:32.300Z,100.00
2023-05-14T03:50:01.158Z,100.00
2023-05-14T03:52:28.556Z,100.00
2023-05-14T03:54:55.931Z,100.00
2023-05-14T03:57:23.284Z,100.00
2023-05-14T03:59:50.633Z,100.00
2023-05-14T04:02:18.023Z,100.00
2023-05-14T04:04:45.437Z,100.00
2023-05-14T04:07:12.863Z,100.00
2023-05-14T04:09:40.365Z,100.00
2023-05-14T04:12:08.179Z,100.00
2023-05-14T04:14:35.650Z,100.00
2023-05-14T04:17:04.044Z,100.00
2023-05-14T04:19:31.435Z,100.00
2023-05-14T04:21:58.880Z,100.00
2023-05-14T04:24:26.254Z,100.00
2023-05-14T04:26:53.633Z,100.00
2023-05-14T04:29:21.122Z,100.00
2023-05-14T04:31:49.566Z,100.00
2023-05-14T04:34:17.026Z,100.00
2023-05-14T04:36:44.378Z,100.00
2023-05-14T04:39:12.538Z,100.00
2023-05-14T04:41:40.000Z,100.00
2023-05-14T04:44:07.655Z,100.00
2023-05-14T04:46:35.217Z,100.00
2023-05-14T04:49:02.711Z,100.00
2023-05-14T04:51:30.077Z,100.00
2023-05-14T04:53:57.471Z,100.00
2023-05-14T04:56:25.475Z,100.00
2023-05-14T04:58:52.836Z,100.00
2023-05-14T05:01:20.345Z,100.00
2023-05-14T05:03:47.804Z,100.00
2023-05-14T05:06:15.426Z,100.00
2023-05-14T05:08:42.775Z,100.00
2023-05-14T05:11:10.098Z,100.00
2023-05-14T05:13:37.456Z,100.00
2023-05-14T05:16:05.310Z,100.00
2023-05-14T05:18:32.724Z,100.00
2023-05-14T05:21:00.153Z,100.00
2023-05-14T05:23:27.471Z,100.00
2023-05-14T05:25:54.838Z,100.00
2023-05-14T05:28:22.190Z,100.00
2023-05-14T05:30:49.547Z,100.00
2023-05-14T05:33:16.918Z,100.00
2023-05-14T05:35:44.774Z,100.00
2023-05-14T05:38:12.141Z,100.00
2023-05-14T05:40:39.546Z,100.00
2023-05-14T05:43:07.103Z,100.00
2023-05-14T05:45:34.426Z,100.00
2023-05-14T05:48:02.095Z,100.00
2023-05-14T05:50:31.720Z,100.00
2023-05-14T05:53:01.954Z,100.00
2023-05-14T05:55:29.872Z,100.00
2023-05-14T05:57:57.228Z,100.00
2023-05-14T06:00:25.274Z,100.00
2023-05-14T06:02:53.260Z,100.00
2023-05-14T06:05:20.722Z,100.00
2023-05-14T06:07:48.127Z,100.00
2023-05-14T06:10:15.549Z,100.00
2023-05-14T06:12:42.925Z,100.00
2023-05-14T06:15:12.185Z,100.00
2023-05-14T06:17:39.695Z,100.00
2023-05-14T06:20:10.424Z,100.00
2023-05-14T06:22:38.045Z,100.00
2023-05-14T06:25:05.724Z,100.00
2023-05-14T06:27:33.447Z,100.00
2023-05-14T06:30:01.402Z,100.00
2023-05-14T06:32:29.303Z,100.00
2023-05-14T06:34:56.669Z,100.00
2023-05-14T06:37:24.036Z,100.00
2023-05-14T06:39:51.440Z,100.00
2023-05-14T06:42:19.105Z,100.00
2023-05-14T06:44:47.189Z,100.00
2023-05-14T06:47:14.546Z,100.00
2023-05-14T06:49:41.948Z,100.00
2023-05-14T06:52:09.420Z,100.00
2023-05-14T06:54:36.860Z,100.00
2023-05-14T06:57:04.395Z,100.00
2023-05-14T06:59:31.689Z,100.00
2023-05-14T07:01:59.766Z,100.00
2023-05-14T07:04:27.188Z,100.00
2023-05-14T07:06:54.630Z,100.00
2023-05-14T07:09:22.570Z,100.00
2023-05-14T07:11:50.660Z,100.00
2023-05-14T07:14:18.273Z,100.00
2023-05-14T07:16:47.098Z,100.00
2023-05-14T07:19:14.659Z,100.00
2023-05-14T07:21:42.029Z,100.00
2023-05-14T07:24:09.383Z,100.00
2023-05-14T07:26:36.779Z,100.00
2023-05-14T07:29:04.109Z,100.00
2023-05-14T07:31:31.488Z,100.00
2023-05-14T07:33:58.871Z,100.00
2023-05-14T07:36:26.487Z,100.00
2023-05-14T07:38:53.978Z,100.00
2023-05-14T07:41:21.565Z,100.00
2023-05-14T07:43:49.080Z,100.00
2023-05-14T07:46:16.596Z,100.00
2023-05-14T07:48:43.990Z,100.00
2023-05-14T07:51:11.935Z,100.00
2023-05-14T07:53:39.309Z,100.00
2023-05-14T07:56:07.154Z,100.00
2023-05-14T07:58:35.179Z,100.00
2023-05-14T08:01:07.019Z,100.00
2023-05-14T08:03:34.863Z,100.00
2023-05-14T08:06:02.286Z,100.00
2023-05-14T08:08:29.672Z,100.00
2023-05-14T08:10:57.083Z,100.00
2023-05-14T08:13:24.572Z,100.00
2023-05-14T08:15:52.428Z,100.00
2023-05-14T08:18:19.783Z,100.00
2023-05-14T08:20:47.187Z,100.00
2023-05-14T08:23:14.661Z,100.00
2023-05-14T08:25:42.012Z,100.00
2023-05-14T08:28:09.365Z,100.00
2023-05-14T08:30:36.777Z,100.00
2023-05-14T08:33:04.881Z,100.00
2023-05-14T08:35:32.226Z,100.00
2023-05-14T08:37:59.559Z,100.00
2023-05-14T08:40:27.323Z,100.00
2023-05-14T08:42:57.109Z,100.00
2023-05-14T08:45:34.539Z,100.00
2023-05-14T08:48:08.876Z,100.00
2023-05-14T08:50:36.698Z,100.00
2023-05-14T08:53:04.147Z,100.00
2023-05-14T08:55:33.489Z,100.00
2023-05-14T08:58:01.518Z,100.00
2023-05-14T09:00:29.510Z,100.00
2023-05-14T09:02:57.734Z,100.00
2023-05-14T09:05:25.808Z,100.00
2023-05-14T09:07:53.227Z,100.00
2023-05-14T09:10:21.680Z,100.00
2023-05-14T09:12:49.225Z,100.00
2023-05-14T09:15:16.597Z,100.00
2023-05-14T09:17:48.089Z,100.00
2023-05-14T09:20:15.730Z,100.00
2023-05-14T09:22:43.109Z,100.00
2023-05-14T09:25:12.398Z,100.00
2023-05-14T09:27:39.910Z,100.00
2023-05-14T09:30:13.634Z,100.00
2023-05-14T09:32:50.342Z,100.00
2023-05-14T09:35:20.615Z,100.00
2023-05-14T09:37:50.417Z,100.00
2023-05-14T09:40:25.139Z,100.00
2023-05-14T09:42:54.266Z,100.00
2023-05-14T09:45:21.728Z,100.00
2023-05-14T09:47:49.650Z,100.00
2023-05-14T09:50:17.090Z,100.00
2023-05-14T09:52:44.451Z,100.00
2023-05-14T09:55:11.992Z,100.00
2023-05-14T09:57:39.816Z,100.00
2023-05-14T10:00:08.888Z,100.00
2023-05-14T10:02:38.180Z,100.00
2023-05-14T10:05:06.892Z,100.00
2023-05-14T10:07:41.768Z,100.00
2023-05-14T10:10:13.574Z,100.00
2023-05-14T10:12:45.670Z,100.00
2023-05-14T10:15:22.809Z,100.00
2023-05-14T10:17:56.154Z,100.00
2023-05-14T10:20:25.341Z,100.00
2023-05-14T10:22:53.066Z,100.00
2023-05-14T10:25:21.806Z,100.00
2023-05-14T10:27:49.206Z,100.00
2023-05-14T10:30:16.721Z,100.00
2023-05-14T10:32:44.349Z,100.00
2023-05-14T10:35:20.892Z,100.00
2023-05-14T10:37:51.762Z,100.00
2023-05-14T10:40:24.659Z,100.00
2023-05-14T10:42:53.314Z,100.00
2023-05-14T10:45:24.151Z,100.00
2023-05-14T10:47:52.140Z,100.00
2023-05-14T10:50:20.661Z,100.00
2023-05-14T10:52:52.974Z,100.00
2023-05-14T10:55:21.761Z,100.00
2023-05-14T10:57:49.517Z,100.00
2023-05-14T11:00:17.249Z,100.00
2023-05-14T11:02:45.176Z,100.00
2023-05-14T11:05:17.657Z,100.00
2023-05-14T11:07:48.029Z,100.00
2023-05-14T11:10:19.524Z,100.00
2023-05-14T11:12:47.777Z,99.10
2023-05-14T11:15:20.281Z,99.36
2023-05-14T11:17:49.976Z,98.46
2023-05-14T11:20:18.718Z,98.16
2023-05-14T11:22:48.130Z,97.19
2023-05-14T11:25:15.948Z,95.65
2023-05-14T11:27:45.064Z,95.27
2023-05-14T11:30:14.353Z,96.60
2023-05-14T11:32:43.698Z,97.48
2023-05-14T11:35:11.286Z,97.55
2023-05-14T11:37:38.820Z,96.58
2023-05-14T11:40:12.066Z,96.49
2023-05-14T11:42:40.030Z,95.89
2023-05-14T11:45:11.957Z,96.00
2023-05-14T11:47:41.519Z,94.36
2023-05-14T11:50:09.991Z,93.33
2023-05-14T11:52:41.551Z,91.85
2023-05-14T11:55:12.942Z,93.40
2023-05-14T11:57:46.567Z,95.03
2023-05-14T12:00:14.570Z,95.03
2023-05-14T12:02:42.476Z,92.27
2023-05-14T12:05:13.078Z,92.27
2023-05-14T12:07:40.674Z,93.03
2023-05-14T12:10:08.718Z,89.53
2023-05-14T12:12:40.034Z,90.94
2023-05-14T12:15:14.646Z,92.18
2023-05-14T12:17:42.215Z,94.32
2023-05-14T12:20:11.074Z,95.00
2023-05-14T12:22:39.360Z,94.29
2023-05-14T12:25:12.938Z,97.47
2023-05-14T12:27:40.572Z,95.27
2023-05-14T12:32:41.097Z,96.77
2023-05-14T12:35:10.279Z,99.97
2023-05-14T12:37:39.943Z,97.81
2023-05-14T12:40:10.799Z,98.12
2023-05-14T12:42:38.168Z,100.00
2023-05-14T12:45:08.107Z,100.00
2023-05-14T12:47:36.476Z,100.00
2023-05-14T12:50:04.375Z,100.00
2023-05-14T12:52:38.533Z,100.00
2023-05-14T12:55:10.016Z,100.00
2023-05-14T12:57:39.299Z,100.00
2023-05-14T13:00:12.239Z,100.00
2023-05-14T13:02:42.380Z,100.00
2023-05-14T13:05:13.971Z,100.00
2023-05-14T13:07:41.588Z,100.00
2023-05-14T13:10:09.372Z,100.00
2023-05-14T13:12:36.840Z,100.00
2023-05-14T13:15:04.844Z,100.00
2023-05-14T13:17:33.147Z,100.00
2023-05-14T13:20:00.719Z,100.00
2023-05-14T13:22:28.092Z,100.00
2023-05-14T13:24:55.550Z,100.00
2023-05-14T13:27:22.903Z,100.00
2023-05-14T13:29:50.297Z,100.00
2023-05-14T13:32:17.649Z,100.00
2023-05-14T13:34:45.129Z,100.00
2023-05-14T13:37:12.516Z,100.00
2023-05-14T13:39:41.069Z,100.00
2023-05-14T13:42:08.576Z,100.00
2023-05-14T13:44:36.282Z,100.00
2023-05-14T13:47:03.951Z,100.00
2023-05-14T13:49:31.361Z,100.00
2023-05-14T13:51:58.831Z,100.00
2023-05-14T13:54:26.263Z,100.00
2023-05-14T13:56:53.624Z,100.00
2023-05-14T13:59:21.160Z,100.00
2023-05-14T14:01:50.102Z,100.00
2023-05-14T14:04:17.775Z,100.00
2023-05-14T14:06:45.175Z,100.00
2023-05-14T14:09:13.799Z,100.00
2023-05-14T14:11:41.319Z,100.00
2023-05-14T14:14:08.753Z,100.00
2023-05-14T14:16:36.312Z,100.00
2023-05-14T14:19:03.876Z,100.00
2023-05-14T14:21:31.831Z,100.00
2023-05-14T14:23:59.325Z,100.00
2023-05-14T14:26:28.022Z,100.00
2023-05-14T14:28:55.595Z,100.00
2023-05-14T14:31:23.069Z,100.00
2023-05-14T14:33:50.640Z,100.00
2023-05-14T14:36:17.975Z,100.00
2023-05-14T14:38:45.411Z,100.00
2023-05-14T14:41:12.884Z,97.54
2023-05-14T14:43:41.385Z,95.94
2023-05-14T14:46:09.767Z,98.22
2023-05-14T14:48:41.302Z,99.26
2023-05-14T14:51:09.588Z,98.51
2023-05-14T14:53:37.335Z,99.77
2023-05-14T14:56:04.985Z,99.40
2023-05-14T14:58:32.844Z,100.00
2023-05-14T15:01:01.366Z,100.00
2023-05-14T15:03:29.260Z,100.00
2023-05-14T15:05:56.834Z,100.00
2023-05-14T15:08:28.051Z,100.00
2023-05-14T15:10:59.391Z,100.00
2023-05-14T15:13:27.156Z,100.00
2023-05-14T15:15:54.588Z,100.00
2023-05-14T15:18:21.891Z,100.00
2023-05-14T15:20:49.322Z,100.00
2023-05-14T15:23:16.782Z,100.00
2023-05-14T15:25:44.928Z,100.00
2023-05-14T15:28:12.377Z,100.00
2023-05-14T15:30:39.754Z,100.00
2023-05-14T15:33:10.861Z,100.00
2023-05-14T15:35:38.517Z,100.00
2023-05-14T15:38:06.989Z,100.00
2023-05-14T15:40:35.254Z,100.00
2023-05-14T15:43:02.773Z,100.00
2023-05-14T15:45:30.073Z,100.00
2023-05-14T15:47:57.610Z,100.00
2023-05-14T15:50:27.360Z,100.00
2023-05-14T15:52:54.797Z,100.00
2023-05-14T15:55:22.248Z,100.00
2023-05-14T15:57:49.958Z,100.00
2023-05-14T16:00:17.803Z,100.00
2023-05-14T16:02:45.376Z,100.00
2023-05-14T16:05:13.700Z,100.00
2023-05-14T16:07:42.786Z,100.00
2023-05-14T16:10:10.617Z,100.00
2023-05-14T16:12:38.089Z,100.00
2023-05-14T16:15:07.147Z,100.00
2023-05-14T16:17:34.799Z,100.00
2023-05-14T16:20:05.415Z,100.00
2023-05-14T16:22:34.692Z,100.00
2023-05-14T16:25:03.488Z,100.00
2023-05-14T16:27:32.048Z,100.00
2023-05-14T16:29:59.426Z,100.00
2023-05-14T16:32:27.684Z,100.00
2023-05-14T16:34:56.555Z,100.00
2023-05-14T16:37:24.046Z,100.00
2023-05-14T16:39:51.403Z,100.00
2023-05-14T16:42:19.026Z,100.00
2023-05-14T16:44:46.415Z,100.00
2023-05-14T16:47:13.944Z,100.00
2023-05-14T16:49:41.350Z,100.00
2023-05-14T16:52:08.679Z,100.00
2023-05-14T16:54:36.422Z,100.00
2023-05-14T16:57:04.315Z,100.00
2023-05-14T16:59:31.945Z,100.00
2023-05-14T17:01:59.451Z,100.00
2023-05-14T17:04:26.916Z,100.00
2023-05-14T17:06:54.925Z,100.00
2023-05-14T17:09:22.285Z,100.00
2023-05-14T17:11:49.639Z,100.00
2023-05-14T17:14:17.162Z,100.00
2023-05-14T17:16:44.574Z,100.00
2023-05-14T17:19:12.234Z,100.00
2023-05-14T17:21:40.005Z,100.00
2023-05-14T17:24:07.506Z,100.00
2023-05-14T17:26:35.008Z,100.00
2023-05-14T17:29:02.418Z,100.00
2023-05-14T17:31:29.849Z,100.00
2023-05-14T17:33:57.278Z,100.00
2023-05-14T17:36:25.038Z,100.00
2023-05-14T17:38:52.670Z,100.00
2023-05-14T17:41:20.092Z,100.00
2023-05-14T17:43:47.408Z,100.00
2023-05-14T17:46:14.801Z,100.00
2023-05-14T17:48:42.259Z,100.00
2023-05-14T17:51:09.683Z,100.00
2023-05-14T17:53:37.051Z,100.00
2023-05-14T17:56:05.093Z,100.00
2023-05-14T17:58:32.637Z,100.00
2023-05-14T18:01:00.229Z,100.00
2023-05-14T18:03:27.693Z,100.00
2023-05-14T18:05:55.398Z,100.00
2023-05-14T18:08:22.765Z,100.00
2023-05-14T18:10:50.289Z,100.00
2023-05-14T18:13:17.651Z,100.00
2023-05-14T18:15:45.023Z,100.00
2023-05-14T18:18:12.600Z,100.00
2023-05-14T18:20:40.010Z,100.00
2023-05-14T18:23:08.120Z,100.00
2023-05-14T18:25:35.622Z,100.00
2023-05-14T18:28:03.067Z,100.00
2023-05-14T18:30:30.467Z,100.00
2023-05-14T18:32:59.648Z,100.00
2023-05-14T18:35:27.986Z,100.00
2023-05-14T18:37:55.587Z,100.00
2023-05-14T18:40:23.075Z,100.00
2023-05-14T18:42:50.542Z,100.00
2023-05-14T18:45:17.886Z,100.00
2023-05-14T18:47:45.643Z,100.00
2023-05-14T18:50:13.060Z,100.00
2023-05-14T18:52:40.459Z,100.00
2023-05-14T18:55:08.386Z,100.00
2023-05-14T18:57:36.946Z,100.00
2023-05-14T19:00:05.224Z,100.00
2023-05-14T19:02:33.601Z,100.00
2023-05-14T19:05:01.087Z,100.00
2023-05-14T19:07:30.333Z,100.00
2023-05-14T19:09:57.710Z,100.00
2023-05-14T19:12:25.128Z,100.00
2023-05-14T19:14:52.901Z,100.00
2023-05-14T19:17:20.678Z,100.00
2023-05-14T19:19:48.292Z,100.00
2023-05-14T19:22:15.864Z,100.00
2023-05-14T19:24:43.431Z,100.00
2023-05-14T19:27:12.817Z,100.00
2023-05-14T19:29:40.173Z,100.00
2023-05-14T19:32:07.957Z,100.00
2023-05-14T19:34:35.791Z,100.00
2023-05-14T19:37:04.006Z,100.00
2023-05-14T19:39:31.568Z,100.00
2023-05-14T19:41:59.240Z,100.00
2023-05-14T19:44:26.816Z,100.00
2023-05-14T19:46:54.402Z,100.00
2023-05-14T19:49:21.843Z,100.00
2023-05-14T19:51:49.319Z,100.00
2023-05-14T19:54:16.819Z,100.00
2023-05-14T19:56:44.275Z,100.00
2023-05-14T19:59:11.946Z,100.00
2023-05-14T20:01:39.442Z,100.00
2023-05-14T20:04:07.473Z,100.00
2023-05-14T20:06:34.936Z,100.00
2023-05-14T20:09:02.485Z,100.00
2023-05-14T20:11:29.916Z,100.00
2023-05-14T20:13:57.392Z,100.00
2023-05-14T20:16:24.877Z,100.00
2023-05-14T20:18:54.031Z,100.00
2023-05-14T20:21:21.510Z,100.00
2023-05-14T20:23:49.145Z,100.00
2023-05-14T20:26:16.646Z,100.00
2023-05-14T20:28:44.182Z,100.00
2023-05-14T20:31:11.740Z,100.00
2023-05-14T20:33:39.282Z,100.00
2023-05-14T20:36:06.777Z,100.00
2023-05-14T20:38:35.026Z,100.00
2023-05-14T20:41:02.943Z,100.00
2023-05-14T20:43:30.436Z,100.00
2023-05-14T20:45:58.966Z,100.00
2023-05-14T20:48:26.551Z,100.00
2023-05-14T20:50:53.964Z,100.00
2023-05-14T20:53:21.401Z,100.00
2023-05-14T20:55:48.912Z,100.00
2023-05-14T20:58:16.280Z,100.00
2023-05-14T21:00:43.893Z,100.00
2023-05-14T21:03:11.427Z,100.00
2023-05-14T21:05:41.499Z,100.00
2023-05-14T21:08:09.096Z,100.00
2023-05-14T21:10:36.558Z,100.00
2023-05-14T21:13:04.175Z,100.00
2023-05-14T21:15:31.694Z,100.00
2023-05-14T21:17:59.104Z,100.00
2023-05-14T21:20:26.759Z,100.00
2023-05-14T21:22:54.168Z,100.00
2023-05-14T21:25:21.571Z,100.00
2023-05-14T21:27:49.141Z,100.00
2023-05-14T21:30:16.576Z,100.00
2023-05-14T21:32:44.047Z,100.00
2023-05-14T21:35:11.576Z,100.00
2023-05-14T21:37:39.974Z,100.00
2023-05-14T21:40:09.385Z,100.00
2023-05-14T21:42:37.259Z,100.00
2023-05-14T21:45:05.208Z,100.00
2023-05-14T21:47:33.280Z,100.00
2023-05-14T21:50:00.665Z,100.00
2023-05-14T21:52:28.166Z,100.00
2023-05-14T21:54:55.739Z,100.00
2023-05-14T21:57:23.205Z,100.00
2023-05-14T21:59:50.609Z,100.00
2023-05-14T22:02:18.126Z,100.00
2023-05-14T22:04:45.621Z,100.00
2023-05-14T22:07:12.984Z,100.00
2023-05-14T22:09:40.878Z,100.00
2023-05-14T22:12:08.444Z,100.00
2023-05-14T22:14:35.841Z,100.00
2023-05-14T22:17:03.437Z,100.00
2023-05-14T22:19:31.322Z,100.00
2023-05-14T22:21:58.892Z,100.00
2023-05-14T22:24:26.447Z,100.00
2023-05-14T22:26:53.869Z,100.00
2023-05-14T22:29:21.384Z,100.00
2023-05-14T22:31:49.021Z,100.00
2023-05-14T22:34:16.631Z,100.00
2023-05-14T22:36:44.037Z,100.00
2023-05-14T22:39:13.498Z,100.00
2023-05-14T22:41:41.151Z,100.00
2023-05-14T22:44:08.701Z,100.00
2023-05-14T22:46:36.266Z,100.00
2023-05-14T22:49:03.606Z,100.00
2023-05-14T22:51:31.079Z,100.00
2023-05-14T22:53:58.567Z,100.00
2023-05-14T22:56:26.043Z,100.00
2023-05-14T22:58:53.481Z,100.00
2023-05-14T23:01:21.045Z,100.00
2023-05-14T23:03:48.517Z,100.00
2023-05-14T23:06:16.017Z,100.00
2023-05-14T23:08:44.499Z,100.00
2023-05-14T23:11:12.018Z,100.00
2023-05-14T23:13:39.401Z,100.00
2023-05-14T23:16:07.038Z,100.00
2023-05-14T23:18:34.728Z,100.00
2023-05-14T23:21:02.389Z,100.00
2023-05-14T23:23:29.727Z,100.00
2023-05-14T23:25:57.201Z,100.00
2023-05-14T23:28:24.554Z,100.00
2023-05-14T23:30:51.977Z,100.00
2023-05-14T23:33:19.391Z,100.00
2023-05-14T23:35:46.989Z,100.00
2023-05-14T23:38:14.640Z,100.00
2023-05-14T23:40:42.165Z,100.00
2023-05-14T23:43:09.569Z,100.00
2023-05-14T23:45:37.125Z,100.00
2023-05-14T23:48:04.929Z,100.00
2023-05-14T23:50:32.317Z,100.00
2023-05-14T23:52:59.793Z,100.00
2023-05-14T23:55:27.416Z,100.00
2023-05-14T23:57:54.935Z,100.00
